In Rescue
 
Open Full Screen Window  High Contrast Mode
Wind Gusting 00 knots
08
March 19, 2019 7:39 PM EDT
Weather Information
Wind Direction
  250 °
Wind Speed
  08 kt (9 mph)
Wind Gust
  00 kt (0 mph)
Altimeter
30.25 in
Visibility
10 SM
Temperature
06° C
43° F
Dewpoint
-05° C
23° F
Humidity
46%
1hr Rain Fall
00.00 in.
24hr Rain Fall
00.00 in.
Sky Condition
Clear
VFR

METAR KIKW 192339Z AUTO 25008KT 10SM CLR 06/M05 A3025 RMK AO2 T00641048

FAA Disclaimer: The data displayed is for advisory purposes only and is not to be used for flight planning or operations.